sensor_id;sensor_type;location;lat;lon;timestamp;P1;durP1;ratioP1;P2;durP2;ratioP2
67819;SDS011;54618;52.018;5.576;2022-12-10T00:00:53;14.80;;;8.10;;
67819;SDS011;54618;52.018;5.576;2022-12-10T00:03:18;13.02;;;7.65;;
67819;SDS011;54618;52.018;5.576;2022-12-10T00:05:44;12.23;;;7.20;;
67819;SDS011;54618;52.018;5.576;2022-12-10T00:08:09;13.50;;;8.07;;
67819;SDS011;54618;52.018;5.576;2022-12-10T00:10:38;13.13;;;7.18;;
67819;SDS011;54618;52.018;5.576;2022-12-10T00:13:04;14.65;;;7.90;;
67819;SDS011;54618;52.018;5.576;2022-12-10T00:15:30;14.45;;;7.65;;
67819;SDS011;54618;52.018;5.576;2022-12-10T00:17:58;13.65;;;7.50;;
67819;SDS011;54618;52.018;5.576;2022-12-10T00:20:24;14.05;;;8.23;;
67819;SDS011;54618;52.018;5.576;2022-12-10T00:22:49;14.02;;;7.32;;
67819;SDS011;54618;52.018;5.576;2022-12-10T00:25:15;12.48;;;7.50;;
67819;SDS011;54618;52.018;5.576;2022-12-10T00:27:41;13.65;;;7.78;;
67819;SDS011;54618;52.018;5.576;2022-12-10T00:30:07;13.82;;;7.82;;
67819;SDS011;54618;52.018;5.576;2022-12-10T00:32:33;13.15;;;7.35;;
67819;SDS011;54618;52.018;5.576;2022-12-10T00:34:58;13.05;;;7.13;;
67819;SDS011;54618;52.018;5.576;2022-12-10T00:37:24;14.38;;;7.95;;
67819;SDS011;54618;52.018;5.576;2022-12-10T00:39:49;14.10;;;8.02;;
67819;SDS011;54618;52.018;5.576;2022-12-10T00:42:14;13.52;;;8.43;;
67819;SDS011;54618;52.018;5.576;2022-12-10T00:44:40;15.40;;;8.00;;
67819;SDS011;54618;52.018;5.576;2022-12-10T00:47:05;13.63;;;7.28;;
67819;SDS011;54618;52.018;5.576;2022-12-10T00:49:31;13.48;;;7.70;;
67819;SDS011;54618;52.018;5.576;2022-12-10T00:51:56;14.75;;;8.20;;
67819;SDS011;54618;52.018;5.576;2022-12-10T00:54:22;14.23;;;8.15;;
67819;SDS011;54618;52.018;5.576;2022-12-10T00:56:48;13.85;;;7.63;;
67819;SDS011;54618;52.018;5.576;2022-12-10T00:59:13;14.48;;;8.05;;
67819;SDS011;54618;52.018;5.576;2022-12-10T01:01:40;16.23;;;8.48;;
67819;SDS011;54618;52.018;5.576;2022-12-10T01:04:09;16.70;;;8.70;;
67819;SDS011;54618;52.018;5.576;2022-12-10T01:06:40;16.27;;;8.32;;
67819;SDS011;54618;52.018;5.576;2022-12-10T01:09:07;14.95;;;8.10;;
67819;SDS011;54618;52.018;5.576;2022-12-10T01:11:36;14.35;;;7.93;;
67819;SDS011;54618;52.018;5.576;2022-12-10T01:14:03;14.82;;;7.93;;
67819;SDS011;54618;52.018;5.576;2022-12-10T01:16:31;17.02;;;8.02;;
67819;SDS011;54618;52.018;5.576;2022-12-10T01:18:57;12.95;;;7.80;;
67819;SDS011;54618;52.018;5.576;2022-12-10T01:21:23;14.65;;;8.10;;
67819;SDS011;54618;52.018;5.576;2022-12-10T01:23:50;14.20;;;7.85;;
67819;SDS011;54618;52.018;5.576;2022-12-10T01:26:18;16.58;;;8.52;;
67819;SDS011;54618;52.018;5.576;2022-12-10T01:28:50;14.32;;;7.90;;
67819;SDS011;54618;52.018;5.576;2022-12-10T01:31:27;12.73;;;7.97;;
67819;SDS011;54618;52.018;5.576;2022-12-10T01:36:25;13.73;;;7.45;;
67819;SDS011;54618;52.018;5.576;2022-12-10T01:38:50;14.75;;;7.72;;
67819;SDS011;54618;52.018;5.576;2022-12-10T01:41:18;15.15;;;8.15;;
67819;SDS011;54618;52.018;5.576;2022-12-10T01:43:51;15.32;;;8.25;;
67819;SDS011;54618;52.018;5.576;2022-12-10T01:46:17;14.48;;;8.20;;
67819;SDS011;54618;52.018;5.576;2022-12-10T01:48:43;15.23;;;8.80;;
67819;SDS011;54618;52.018;5.576;2022-12-10T01:51:10;13.75;;;8.07;;
67819;SDS011;54618;52.018;5.576;2022-12-10T01:53:36;17.05;;;8.57;;
67819;SDS011;54618;52.018;5.576;2022-12-10T01:56:02;15.00;;;7.80;;
67819;SDS011;54618;52.018;5.576;2022-12-10T01:58:28;16.42;;;7.95;;
67819;SDS011;54618;52.018;5.576;2022-12-10T02:14:53;15.83;;;8.50;;
67819;SDS011;54618;52.018;5.576;2022-12-10T02:17:34;16.90;;;8.50;;
67819;SDS011;54618;52.018;5.576;2022-12-10T02:23:03;14.27;;;7.90;;
67819;SDS011;54618;52.018;5.576;2022-12-10T02:26:15;16.23;;;8.50;;
67819;SDS011;54618;52.018;5.576;2022-12-10T02:31:17;14.77;;;8.03;;
67819;SDS011;54618;52.018;5.576;2022-12-10T02:33:47;16.10;;;8.13;;
67819;SDS011;54618;52.018;5.576;2022-12-10T02:36:16;17.13;;;8.63;;
67819;SDS011;54618;52.018;5.576;2022-12-10T02:38:44;14.18;;;7.80;;
67819;SDS011;54618;52.018;5.576;2022-12-10T02:41:16;15.88;;;8.75;;
67819;SDS011;54618;52.018;5.576;2022-12-10T02:43:47;14.98;;;8.05;;
67819;SDS011;54618;52.018;5.576;2022-12-10T02:46:16;15.57;;;8.13;;
67819;SDS011;54618;52.018;5.576;2022-12-10T02:48:41;15.27;;;8.18;;
67819;SDS011;54618;52.018;5.576;2022-12-10T02:51:07;13.55;;;8.07;;
67819;SDS011;54618;52.018;5.576;2022-12-10T02:53:33;15.52;;;8.25;;
67819;SDS011;54618;52.018;5.576;2022-12-10T02:56:04;16.42;;;8.43;;
67819;SDS011;54618;52.018;5.576;2022-12-10T02:58:52;14.25;;;8.13;;
67819;SDS011;54618;52.018;5.576;2022-12-10T03:04:18;14.90;;;8.60;;
67819;SDS011;54618;52.018;5.576;2022-12-10T03:06:52;15.70;;;8.43;;
67819;SDS011;54618;52.018;5.576;2022-12-10T03:09:29;14.97;;;8.30;;
67819;SDS011;54618;52.018;5.576;2022-12-10T03:12:02;17.75;;;9.00;;
67819;SDS011;54618;52.018;5.576;2022-12-10T03:14:36;19.05;;;9.77;;
67819;SDS011;54618;52.018;5.576;2022-12-10T03:17:02;17.58;;;9.40;;
67819;SDS011;54618;52.018;5.576;2022-12-10T03:19:37;16.92;;;8.90;;
67819;SDS011;54618;52.018;5.576;2022-12-10T03:22:07;16.13;;;9.20;;
67819;SDS011;54618;52.018;5.576;2022-12-10T03:24:34;17.67;;;9.82;;
67819;SDS011;54618;52.018;5.576;2022-12-10T03:27:00;18.08;;;9.93;;
67819;SDS011;54618;52.018;5.576;2022-12-10T03:29:33;18.75;;;9.73;;
67819;SDS011;54618;52.018;5.576;2022-12-10T03:32:02;17.08;;;9.50;;
67819;SDS011;54618;52.018;5.576;2022-12-10T03:34:29;19.20;;;9.85;;
67819;SDS011;54618;52.018;5.576;2022-12-10T03:36:54;20.17;;;10.63;;
67819;SDS011;54618;52.018;5.576;2022-12-10T03:39:20;18.73;;;9.80;;
67819;SDS011;54618;52.018;5.576;2022-12-10T03:41:47;19.75;;;10.38;;
67819;SDS011;54618;52.018;5.576;2022-12-10T03:44:12;20.17;;;10.30;;
67819;SDS011;54618;52.018;5.576;2022-12-10T03:46:38;19.13;;;10.32;;
67819;SDS011;54618;52.018;5.576;2022-12-10T03:49:04;20.08;;;10.88;;
67819;SDS011;54618;52.018;5.576;2022-12-10T03:51:29;19.55;;;10.50;;
67819;SDS011;54618;52.018;5.576;2022-12-10T03:53:55;19.42;;;10.10;;
67819;SDS011;54618;52.018;5.576;2022-12-10T03:56:21;19.83;;;11.13;;
67819;SDS011;54618;52.018;5.576;2022-12-10T03:58:47;19.00;;;9.90;;
67819;SDS011;54618;52.018;5.576;2022-12-10T04:01:13;21.75;;;10.57;;
67819;SDS011;54618;52.018;5.576;2022-12-10T04:03:39;20.15;;;10.82;;
67819;SDS011;54618;52.018;5.576;2022-12-10T04:06:08;20.55;;;10.82;;
67819;SDS011;54618;52.018;5.576;2022-12-10T04:08:37;19.02;;;9.98;;
67819;SDS011;54618;52.018;5.576;2022-12-10T04:11:04;21.27;;;11.02;;
67819;SDS011;54618;52.018;5.576;2022-12-10T04:13:31;21.17;;;10.73;;
67819;SDS011;54618;52.018;5.576;2022-12-10T04:16:17;21.77;;;10.95;;
67819;SDS011;54618;52.018;5.576;2022-12-10T04:18:51;20.52;;;10.60;;
67819;SDS011;54618;52.018;5.576;2022-12-10T04:21:17;20.38;;;10.88;;
67819;SDS011;54618;52.018;5.576;2022-12-10T04:24:01;21.17;;;10.68;;
67819;SDS011;54618;52.018;5.576;2022-12-10T04:26:45;22.90;;;11.27;;
67819;SDS011;54618;52.018;5.576;2022-12-10T04:29:16;19.85;;;11.07;;
67819;SDS011;54618;52.018;5.576;2022-12-10T04:31:43;22.00;;;11.45;;
67819;SDS011;54618;52.018;5.576;2022-12-10T04:34:09;20.92;;;10.68;;
67819;SDS011;54618;52.018;5.576;2022-12-10T04:36:34;21.92;;;11.00;;
67819;SDS011;54618;52.018;5.576;2022-12-10T04:39:00;22.35;;;11.27;;
67819;SDS011;54618;52.018;5.576;2022-12-10T04:41:25;21.75;;;11.35;;
67819;SDS011;54618;52.018;5.576;2022-12-10T04:43:52;22.88;;;11.93;;
67819;SDS011;54618;52.018;5.576;2022-12-10T04:46:17;23.85;;;11.90;;
67819;SDS011;54618;52.018;5.576;2022-12-10T04:48:43;22.38;;;11.20;;
67819;SDS011;54618;52.018;5.576;2022-12-10T04:51:09;21.95;;;11.57;;
67819;SDS011;54618;52.018;5.576;2022-12-10T04:53:34;21.67;;;10.85;;
67819;SDS011;54618;52.018;5.576;2022-12-10T04:56:00;20.63;;;11.15;;
67819;SDS011;54618;52.018;5.576;2022-12-10T04:58:26;22.58;;;11.57;;
67819;SDS011;54618;52.018;5.576;2022-12-10T05:01:00;23.42;;;11.48;;
67819;SDS011;54618;52.018;5.576;2022-12-10T05:03:27;23.08;;;12.23;;
67819;SDS011;54618;52.018;5.576;2022-12-10T05:05:52;23.27;;;11.82;;
67819;SDS011;54618;52.018;5.576;2022-12-10T05:08:18;22.73;;;10.95;;
67819;SDS011;54618;52.018;5.576;2022-12-10T05:10:43;23.77;;;11.95;;
67819;SDS011;54618;52.018;5.576;2022-12-10T05:13:09;23.48;;;11.80;;
67819;SDS011;54618;52.018;5.576;2022-12-10T05:15:37;22.38;;;11.60;;
67819;SDS011;54618;52.018;5.576;2022-12-10T05:18:03;21.50;;;11.75;;
67819;SDS011;54618;52.018;5.576;2022-12-10T05:20:29;23.67;;;11.90;;
67819;SDS011;54618;52.018;5.576;2022-12-10T05:22:54;24.10;;;11.40;;
67819;SDS011;54618;52.018;5.576;2022-12-10T05:25:38;21.70;;;11.20;;
67819;SDS011;54618;52.018;5.576;2022-12-10T05:28:17;24.60;;;11.98;;
67819;SDS011;54618;52.018;5.576;2022-12-10T05:30:47;21.90;;;11.40;;
67819;SDS011;54618;52.018;5.576;2022-12-10T05:33:13;22.80;;;11.70;;
67819;SDS011;54618;52.018;5.576;2022-12-10T05:35:39;23.27;;;11.73;;
67819;SDS011;54618;52.018;5.576;2022-12-10T05:38:05;22.67;;;11.20;;
67819;SDS011;54618;52.018;5.576;2022-12-10T05:40:37;21.90;;;11.65;;
67819;SDS011;54618;52.018;5.576;2022-12-10T05:43:02;21.52;;;11.27;;
67819;SDS011;54618;52.018;5.576;2022-12-10T05:45:28;22.77;;;11.00;;
67819;SDS011;54618;52.018;5.576;2022-12-10T05:47:53;23.20;;;11.68;;
67819;SDS011;54618;52.018;5.576;2022-12-10T05:50:19;23.30;;;11.57;;
67819;SDS011;54618;52.018;5.576;2022-12-10T05:52:44;23.67;;;12.32;;
67819;SDS011;54618;52.018;5.576;2022-12-10T05:55:10;23.05;;;11.80;;
67819;SDS011;54618;52.018;5.576;2022-12-10T05:57:36;22.88;;;11.35;;
67819;SDS011;54618;52.018;5.576;2022-12-10T06:00:03;23.50;;;12.30;;
67819;SDS011;54618;52.018;5.576;2022-12-10T06:02:32;23.23;;;11.80;;
67819;SDS011;54618;52.018;5.576;2022-12-10T06:04:58;23.00;;;11.43;;
67819;SDS011;54618;52.018;5.576;2022-12-10T06:07:23;24.38;;;12.38;;
67819;SDS011;54618;52.018;5.576;2022-12-10T06:09:49;23.58;;;12.18;;
67819;SDS011;54618;52.018;5.576;2022-12-10T06:12:15;25.02;;;12.25;;
67819;SDS011;54618;52.018;5.576;2022-12-10T06:14:40;25.60;;;12.35;;
67819;SDS011;54618;52.018;5.576;2022-12-10T06:17:06;25.10;;;12.50;;
67819;SDS011;54618;52.018;5.576;2022-12-10T06:19:32;22.77;;;11.73;;
67819;SDS011;54618;52.018;5.576;2022-12-10T06:21:57;23.55;;;11.85;;
67819;SDS011;54618;52.018;5.576;2022-12-10T06:24:23;23.80;;;12.40;;
67819;SDS011;54618;52.018;5.576;2022-12-10T06:26:49;24.23;;;12.48;;
67819;SDS011;54618;52.018;5.576;2022-12-10T06:29:15;24.70;;;12.18;;
67819;SDS011;54618;52.018;5.576;2022-12-10T06:31:40;24.38;;;12.45;;
67819;SDS011;54618;52.018;5.576;2022-12-10T06:34:06;26.40;;;12.73;;
67819;SDS011;54618;52.018;5.576;2022-12-10T06:36:31;25.35;;;12.85;;
67819;SDS011;54618;52.018;5.576;2022-12-10T06:38:57;23.77;;;12.18;;
67819;SDS011;54618;52.018;5.576;2022-12-10T06:41:23;25.85;;;13.10;;
67819;SDS011;54618;52.018;5.576;2022-12-10T06:43:48;25.88;;;12.85;;
67819;SDS011;54618;52.018;5.576;2022-12-10T06:46:15;24.67;;;12.52;;
67819;SDS011;54618;52.018;5.576;2022-12-10T06:48:43;24.42;;;12.63;;
67819;SDS011;54618;52.018;5.576;2022-12-10T06:51:09;24.30;;;12.02;;
67819;SDS011;54618;52.018;5.576;2022-12-10T06:53:36;23.55;;;12.10;;
67819;SDS011;54618;52.018;5.576;2022-12-10T06:56:02;24.95;;;13.02;;
67819;SDS011;54618;52.018;5.576;2022-12-10T06:58:29;24.58;;;12.38;;
67819;SDS011;54618;52.018;5.576;2022-12-10T07:01:05;24.58;;;12.43;;
67819;SDS011;54618;52.018;5.576;2022-12-10T07:03:33;27.13;;;12.95;;
67819;SDS011;54618;52.018;5.576;2022-12-10T07:05:58;25.88;;;12.70;;
67819;SDS011;54618;52.018;5.576;2022-12-10T07:08:24;26.20;;;12.48;;
67819;SDS011;54618;52.018;5.576;2022-12-10T07:10:50;26.63;;;12.93;;
67819;SDS011;54618;52.018;5.576;2022-12-10T07:13:16;26.15;;;12.38;;
67819;SDS011;54618;52.018;5.576;2022-12-10T07:15:42;24.33;;;12.27;;
67819;SDS011;54618;52.018;5.576;2022-12-10T07:18:07;22.75;;;11.75;;
67819;SDS011;54618;52.018;5.576;2022-12-10T07:20:33;25.88;;;12.52;;
67819;SDS011;54618;52.018;5.576;2022-12-10T07:22:58;26.10;;;12.85;;
67819;SDS011;54618;52.018;5.576;2022-12-10T07:25:24;26.38;;;12.75;;
67819;SDS011;54618;52.018;5.576;2022-12-10T07:27:49;25.63;;;12.40;;
67819;SDS011;54618;52.018;5.576;2022-12-10T07:30:15;27.27;;;13.23;;
67819;SDS011;54618;52.018;5.576;2022-12-10T07:32:40;25.70;;;13.10;;
67819;SDS011;54618;52.018;5.576;2022-12-10T07:35:06;25.23;;;12.65;;
67819;SDS011;54618;52.018;5.576;2022-12-10T07:37:32;26.33;;;12.88;;
67819;SDS011;54618;52.018;5.576;2022-12-10T07:39:58;27.70;;;13.43;;
67819;SDS011;54618;52.018;5.576;2022-12-10T07:42:23;26.35;;;12.48;;
67819;SDS011;54618;52.018;5.576;2022-12-10T07:44:49;27.73;;;13.23;;
67819;SDS011;54618;52.018;5.576;2022-12-10T07:47:15;27.00;;;13.05;;
67819;SDS011;54618;52.018;5.576;2022-12-10T07:49:41;24.85;;;13.02;;
67819;SDS011;54618;52.018;5.576;2022-12-10T07:52:07;26.73;;;13.07;;
67819;SDS011;54618;52.018;5.576;2022-12-10T07:54:33;27.20;;;13.38;;
67819;SDS011;54618;52.018;5.576;2022-12-10T07:56:59;22.85;;;12.07;;
67819;SDS011;54618;52.018;5.576;2022-12-10T07:59:25;24.23;;;12.05;;
67819;SDS011;54618;52.018;5.576;2022-12-10T08:01:51;25.15;;;12.35;;
67819;SDS011;54618;52.018;5.576;2022-12-10T08:04:16;24.27;;;12.18;;
67819;SDS011;54618;52.018;5.576;2022-12-10T08:06:42;23.55;;;11.30;;
67819;SDS011;54618;52.018;5.576;2022-12-10T08:09:08;24.65;;;12.77;;
67819;SDS011;54618;52.018;5.576;2022-12-10T08:11:34;28.95;;;13.65;;
67819;SDS011;54618;52.018;5.576;2022-12-10T08:14:00;29.58;;;13.07;;
67819;SDS011;54618;52.018;5.576;2022-12-10T08:16:26;25.50;;;12.25;;
67819;SDS011;54618;52.018;5.576;2022-12-10T08:18:54;29.90;;;13.55;;
67819;SDS011;54618;52.018;5.576;2022-12-10T08:21:21;29.83;;;13.75;;
67819;SDS011;54618;52.018;5.576;2022-12-10T08:23:49;29.77;;;14.85;;
67819;SDS011;54618;52.018;5.576;2022-12-10T08:26:20;28.35;;;13.65;;
67819;SDS011;54618;52.018;5.576;2022-12-10T08:28:47;27.90;;;13.30;;
67819;SDS011;54618;52.018;5.576;2022-12-10T08:31:14;29.20;;;13.88;;
67819;SDS011;54618;52.018;5.576;2022-12-10T08:33:41;30.17;;;14.32;;
67819;SDS011;54618;52.018;5.576;2022-12-10T08:36:07;31.38;;;14.93;;
67819;SDS011;54618;52.018;5.576;2022-12-10T08:38:35;32.78;;;14.77;;
67819;SDS011;54618;52.018;5.576;2022-12-10T08:41:11;32.83;;;14.98;;
67819;SDS011;54618;52.018;5.576;2022-12-10T08:43:39;33.17;;;14.48;;
67819;SDS011;54618;52.018;5.576;2022-12-10T08:46:05;31.80;;;14.30;;
67819;SDS011;54618;52.018;5.576;2022-12-10T08:48:32;30.65;;;14.18;;
67819;SDS011;54618;52.018;5.576;2022-12-10T08:50:59;32.28;;;15.05;;
67819;SDS011;54618;52.018;5.576;2022-12-10T08:53:24;28.33;;;14.20;;
67819;SDS011;54618;52.018;5.576;2022-12-10T08:55:50;29.50;;;14.02;;
67819;SDS011;54618;52.018;5.576;2022-12-10T08:58:16;33.35;;;15.07;;
67819;SDS011;54618;52.018;5.576;2022-12-10T09:00:42;33.17;;;15.57;;
67819;SDS011;54618;52.018;5.576;2022-12-10T09:03:08;30.65;;;14.77;;
67819;SDS011;54618;52.018;5.576;2022-12-10T09:05:34;31.17;;;14.35;;
67819;SDS011;54618;52.018;5.576;2022-12-10T09:08:00;29.08;;;14.32;;
67819;SDS011;54618;52.018;5.576;2022-12-10T09:10:26;31.88;;;14.68;;
67819;SDS011;54618;52.018;5.576;2022-12-10T09:12:51;32.63;;;14.80;;
67819;SDS011;54618;52.018;5.576;2022-12-10T09:15:17;33.75;;;15.48;;
67819;SDS011;54618;52.018;5.576;2022-12-10T09:17:42;30.25;;;14.98;;
67819;SDS011;54618;52.018;5.576;2022-12-10T09:20:08;30.45;;;13.93;;
67819;SDS011;54618;52.018;5.576;2022-12-10T09:22:34;31.20;;;15.18;;
67819;SDS011;54618;52.018;5.576;2022-12-10T09:25:02;32.17;;;14.68;;
67819;SDS011;54618;52.018;5.576;2022-12-10T09:27:29;31.27;;;14.20;;
67819;SDS011;54618;52.018;5.576;2022-12-10T09:29:55;32.45;;;14.57;;
67819;SDS011;54618;52.018;5.576;2022-12-10T09:32:21;31.20;;;13.73;;
67819;SDS011;54618;52.018;5.576;2022-12-10T09:34:46;29.63;;;14.20;;
67819;SDS011;54618;52.018;5.576;2022-12-10T09:37:15;30.65;;;13.68;;
67819;SDS011;54618;52.018;5.576;2022-12-10T09:39:40;29.00;;;13.45;;
67819;SDS011;54618;52.018;5.576;2022-12-10T09:42:13;30.45;;;13.88;;
67819;SDS011;54618;52.018;5.576;2022-12-10T09:45:16;28.52;;;13.98;;
67819;SDS011;54618;52.018;5.576;2022-12-10T09:48:03;27.98;;;13.07;;
67819;SDS011;54618;52.018;5.576;2022-12-10T09:53:48;29.17;;;13.77;;
67819;SDS011;54618;52.018;5.576;2022-12-10T09:56:24;27.50;;;13.27;;
67819;SDS011;54618;52.018;5.576;2022-12-10T09:58:52;28.40;;;13.05;;
67819;SDS011;54618;52.018;5.576;2022-12-10T10:01:19;27.90;;;13.25;;
67819;SDS011;54618;52.018;5.576;2022-12-10T10:03:50;30.10;;;13.75;;
67819;SDS011;54618;52.018;5.576;2022-12-10T10:06:16;29.65;;;13.73;;
67819;SDS011;54618;52.018;5.576;2022-12-10T10:08:55;30.30;;;13.63;;
67819;SDS011;54618;52.018;5.576;2022-12-10T10:11:25;25.50;;;12.40;;
67819;SDS011;54618;52.018;5.576;2022-12-10T10:16:24;27.85;;;12.88;;
67819;SDS011;54618;52.018;5.576;2022-12-10T10:21:38;25.85;;;12.13;;
67819;SDS011;54618;52.018;5.576;2022-12-10T10:24:06;28.75;;;12.43;;
67819;SDS011;54618;52.018;5.576;2022-12-10T10:26:36;24.93;;;11.37;;
67819;SDS011;54618;52.018;5.576;2022-12-10T10:29:02;26.38;;;11.95;;
67819;SDS011;54618;52.018;5.576;2022-12-10T10:31:32;26.88;;;12.25;;
67819;SDS011;54618;52.018;5.576;2022-12-10T10:34:00;25.85;;;12.10;;
67819;SDS011;54618;52.018;5.576;2022-12-10T10:36:28;26.27;;;13.15;;
67819;SDS011;54618;52.018;5.576;2022-12-10T10:39:33;30.33;;;13.23;;
67819;SDS011;54618;52.018;5.576;2022-12-10T10:41:54;25.80;;;11.88;;
67819;SDS011;54618;52.018;5.576;2022-12-10T10:44:22;24.63;;;12.30;;
67819;SDS011;54618;52.018;5.576;2022-12-10T10:46:50;24.55;;;11.90;;
67819;SDS011;54618;52.018;5.576;2022-12-10T10:51:49;26.27;;;11.98;;
67819;SDS011;54618;52.018;5.576;2022-12-10T10:54:32;23.05;;;11.23;;
67819;SDS011;54618;52.018;5.576;2022-12-10T10:57:23;24.02;;;11.15;;
67819;SDS011;54618;52.018;5.576;2022-12-10T11:00:06;23.20;;;11.20;;
67819;SDS011;54618;52.018;5.576;2022-12-10T11:02:43;24.15;;;11.45;;
67819;SDS011;54618;52.018;5.576;2022-12-10T11:05:17;24.90;;;11.68;;
67819;SDS011;54618;52.018;5.576;2022-12-10T11:07:59;23.75;;;11.45;;
67819;SDS011;54618;52.018;5.576;2022-12-10T11:10:27;23.70;;;11.02;;
67819;SDS011;54618;52.018;5.576;2022-12-10T11:17:52;23.15;;;10.73;;
67819;SDS011;54618;52.018;5.576;2022-12-10T11:20:30;22.15;;;10.95;;
67819;SDS011;54618;52.018;5.576;2022-12-10T11:22:58;23.70;;;11.45;;
67819;SDS011;54618;52.018;5.576;2022-12-10T11:25:35;21.77;;;10.98;;
67819;SDS011;54618;52.018;5.576;2022-12-10T11:33:41;20.38;;;10.23;;
67819;SDS011;54618;52.018;5.576;2022-12-10T11:36:38;21.60;;;10.63;;
67819;SDS011;54618;52.018;5.576;2022-12-10T11:39:22;20.40;;;9.57;;
67819;SDS011;54618;52.018;5.576;2022-12-10T11:44:58;20.83;;;10.10;;
67819;SDS011;54618;52.018;5.576;2022-12-10T11:50:52;19.38;;;9.80;;
67819;SDS011;54618;52.018;5.576;2022-12-10T11:53:38;20.45;;;9.77;;
67819;SDS011;54618;52.018;5.576;2022-12-10T11:56:20;21.50;;;10.23;;
67819;SDS011;54618;52.018;5.576;2022-12-10T12:04:31;19.67;;;9.50;;
67819;SDS011;54618;52.018;5.576;2022-12-10T12:13:08;20.90;;;9.95;;
67819;SDS011;54618;52.018;5.576;2022-12-10T12:16:12;20.77;;;9.82;;
67819;SDS011;54618;52.018;5.576;2022-12-10T12:18:46;20.88;;;9.73;;
67819;SDS011;54618;52.018;5.576;2022-12-10T12:21:20;20.27;;;9.82;;
67819;SDS011;54618;52.018;5.576;2022-12-10T12:26:26;18.17;;;9.13;;
67819;SDS011;54618;52.018;5.576;2022-12-10T12:31:37;18.55;;;9.32;;
67819;SDS011;54618;52.018;5.576;2022-12-10T12:34:18;19.83;;;9.63;;
67819;SDS011;54618;52.018;5.576;2022-12-10T12:36:48;19.05;;;8.90;;
67819;SDS011;54618;52.018;5.576;2022-12-10T12:44:36;15.90;;;8.45;;
67819;SDS011;54618;52.018;5.576;2022-12-10T12:50:25;17.00;;;9.23;;
67819;SDS011;54618;52.018;5.576;2022-12-10T12:53:10;17.90;;;8.77;;
67819;SDS011;54618;52.018;5.576;2022-12-10T12:58:26;17.88;;;8.75;;
67819;SDS011;54618;52.018;5.576;2022-12-10T13:04:16;16.52;;;8.95;;
67819;SDS011;54618;52.018;5.576;2022-12-10T13:06:42;17.25;;;8.63;;
67819;SDS011;54618;52.018;5.576;2022-12-10T13:09:27;17.20;;;9.05;;
67819;SDS011;54618;52.018;5.576;2022-12-10T13:14:31;16.48;;;8.75;;
67819;SDS011;54618;52.018;5.576;2022-12-10T13:17:00;16.52;;;8.32;;
67819;SDS011;54618;52.018;5.576;2022-12-10T13:19:49;17.25;;;8.68;;
67819;SDS011;54618;52.018;5.576;2022-12-10T13:25:17;18.08;;;8.80;;
67819;SDS011;54618;52.018;5.576;2022-12-10T13:27:56;15.60;;;8.45;;
67819;SDS011;54618;52.018;5.576;2022-12-10T13:30:40;15.75;;;8.43;;
67819;SDS011;54618;52.018;5.576;2022-12-10T13:33:16;16.85;;;8.48;;
67819;SDS011;54618;52.018;5.576;2022-12-10T13:35:50;16.42;;;8.35;;
67819;SDS011;54618;52.018;5.576;2022-12-10T13:38:22;15.65;;;8.00;;
67819;SDS011;54618;52.018;5.576;2022-12-10T13:40:57;17.67;;;8.68;;
67819;SDS011;54618;52.018;5.576;2022-12-10T13:43:52;17.13;;;8.75;;
67819;SDS011;54618;52.018;5.576;2022-12-10T13:46:56;15.70;;;8.23;;
67819;SDS011;54618;52.018;5.576;2022-12-10T13:52:19;15.43;;;8.18;;
67819;SDS011;54618;52.018;5.576;2022-12-10T14:06:21;16.63;;;8.95;;
67819;SDS011;54618;52.018;5.576;2022-12-10T14:14:32;15.02;;;7.95;;
67819;SDS011;54618;52.018;5.576;2022-12-10T14:16:59;14.73;;;8.10;;
67819;SDS011;54618;52.018;5.576;2022-12-10T14:19:37;16.27;;;8.80;;
67819;SDS011;54618;52.018;5.576;2022-12-10T14:22:04;16.85;;;8.75;;
67819;SDS011;54618;52.018;5.576;2022-12-10T14:24:33;17.50;;;9.15;;
67819;SDS011;54618;52.018;5.576;2022-12-10T14:27:24;15.52;;;8.07;;
67819;SDS011;54618;52.018;5.576;2022-12-10T14:29:52;15.68;;;8.55;;
67819;SDS011;54618;52.018;5.576;2022-12-10T14:32:25;25.92;;;12.65;;
67819;SDS011;54618;52.018;5.576;2022-12-10T14:34:55;18.33;;;10.48;;
67819;SDS011;54618;52.018;5.576;2022-12-10T14:37:26;17.95;;;9.68;;
67819;SDS011;54618;52.018;5.576;2022-12-10T14:39:55;19.67;;;10.43;;
67819;SDS011;54618;52.018;5.576;2022-12-10T14:42:21;18.15;;;9.93;;
67819;SDS011;54618;52.018;5.576;2022-12-10T14:44:49;18.45;;;9.43;;
67819;SDS011;54618;52.018;5.576;2022-12-10T14:47:21;17.88;;;9.82;;
67819;SDS011;54618;52.018;5.576;2022-12-10T14:49:48;17.90;;;9.95;;
67819;SDS011;54618;52.018;5.576;2022-12-10T14:52:19;19.20;;;10.10;;
67819;SDS011;54618;52.018;5.576;2022-12-10T14:54:47;18.50;;;9.52;;
67819;SDS011;54618;52.018;5.576;2022-12-10T14:57:26;18.77;;;10.25;;
67819;SDS011;54618;52.018;5.576;2022-12-10T15:00:10;19.85;;;10.18;;
67819;SDS011;54618;52.018;5.576;2022-12-10T15:02:47;20.08;;;10.75;;
67819;SDS011;54618;52.018;5.576;2022-12-10T15:05:23;17.77;;;9.88;;
67819;SDS011;54618;52.018;5.576;2022-12-10T15:07:59;19.55;;;10.07;;
67819;SDS011;54618;52.018;5.576;2022-12-10T15:10:28;20.88;;;10.40;;
67819;SDS011;54618;52.018;5.576;2022-12-10T15:12:58;19.58;;;10.02;;
67819;SDS011;54618;52.018;5.576;2022-12-10T15:15:25;21.70;;;10.07;;
67819;SDS011;54618;52.018;5.576;2022-12-10T15:26:15;19.77;;;10.02;;
67819;SDS011;54618;52.018;5.576;2022-12-10T15:28:35;18.77;;;8.88;;
67819;SDS011;54618;52.018;5.576;2022-12-10T15:31:22;19.98;;;9.73;;
67819;SDS011;54618;52.018;5.576;2022-12-10T15:33:49;20.88;;;10.05;;
67819;SDS011;54618;52.018;5.576;2022-12-10T15:36:17;22.23;;;9.95;;
67819;SDS011;54618;52.018;5.576;2022-12-10T15:38:57;20.33;;;9.93;;
67819;SDS011;54618;52.018;5.576;2022-12-10T15:41:43;20.83;;;9.70;;
67819;SDS011;54618;52.018;5.576;2022-12-10T15:47:12;21.05;;;9.82;;
67819;SDS011;54618;52.018;5.576;2022-12-10T15:49:41;17.80;;;9.18;;
67819;SDS011;54618;52.018;5.576;2022-12-10T15:52:10;20.15;;;9.70;;
67819;SDS011;54618;52.018;5.576;2022-12-10T15:54:57;20.60;;;10.35;;
67819;SDS011;54618;52.018;5.576;2022-12-10T15:57:28;22.20;;;10.15;;
67819;SDS011;54618;52.018;5.576;2022-12-10T15:59:55;21.60;;;9.95;;
67819;SDS011;54618;52.018;5.576;2022-12-10T16:02:36;18.95;;;9.35;;
67819;SDS011;54618;52.018;5.576;2022-12-10T16:05:14;20.63;;;9.70;;
67819;SDS011;54618;52.018;5.576;2022-12-10T16:07:40;21.73;;;9.88;;
67819;SDS011;54618;52.018;5.576;2022-12-10T16:10:07;19.42;;;9.85;;
67819;SDS011;54618;52.018;5.576;2022-12-10T16:12:36;21.85;;;10.20;;
67819;SDS011;54618;52.018;5.576;2022-12-10T16:15:02;22.63;;;10.10;;
67819;SDS011;54618;52.018;5.576;2022-12-10T16:17:29;20.33;;;9.85;;
67819;SDS011;54618;52.018;5.576;2022-12-10T16:19:58;21.38;;;9.90;;
67819;SDS011;54618;52.018;5.576;2022-12-10T16:22:24;20.20;;;9.90;;
67819;SDS011;54618;52.018;5.576;2022-12-10T16:24:50;20.67;;;9.95;;
67819;SDS011;54618;52.018;5.576;2022-12-10T16:27:15;23.50;;;10.55;;
67819;SDS011;54618;52.018;5.576;2022-12-10T16:29:41;19.77;;;9.75;;
67819;SDS011;54618;52.018;5.576;2022-12-10T16:32:11;21.98;;;10.00;;
67819;SDS011;54618;52.018;5.576;2022-12-10T16:34:36;22.92;;;10.68;;
67819;SDS011;54618;52.018;5.576;2022-12-10T16:37:03;24.42;;;11.05;;
67819;SDS011;54618;52.018;5.576;2022-12-10T16:39:30;21.90;;;10.15;;
67819;SDS011;54618;52.018;5.576;2022-12-10T16:41:56;24.15;;;10.70;;